Time;durP1;ratioP1;P1;durP2;ratioP2;P2;SDS_P1;SDS_P2;PMS_P1;PMS_P2;Temp;Humidity;BMP_temperature;BMP_pressure;BME280_temperature;BME280_humidity;BME280_pressure;Samples;Min_cycle;Max_cycle;Signal;HPM_P1;HPM_P2
2021/08/30 00:00:10;;;;;;;8.68;7.43;;;;;;;;;;4898767;29;20697;-84
2021/08/30 00:02:38;;;;;;;8.85;7.95;;;;;;;;;;4899437;29;20571;-84
2021/08/30 00:05:07;;;;;;;8.38;7.57;;;;;;;;;;4899302;29;20207;-84
2021/08/30 00:07:35;;;;;;;8.60;7.80;;;;;;;;;;4899615;29;20638;-84
2021/08/30 00:10:03;;;;;;;7.60;6.90;;;;;;;;;;4899036;29;20265;-85
2021/08/30 00:12:30;;;;;;;8.63;7.82;;;;;;;;;;4899057;29;20191;-84
2021/08/30 00:14:59;;;;;;;10.52;8.68;;;;;;;;;;4898712;29;20187;-85
2021/08/30 00:17:27;;;;;;;8.40;7.50;;;;;;;;;;4898677;29;20187;-85
2021/08/30 00:19:54;;;;;;;10.60;9.65;;;;;;;;;;4898474;29;20231;-84
2021/08/30 00:22:22;;;;;;;10.73;9.15;;;;;;;;;;4898655;29;20199;-84
2021/08/30 00:24:49;;;;;;;8.25;7.45;;;;;;;;;;4898541;29;20580;-84
2021/08/30 00:27:16;;;;;;;9.48;8.32;;;;;;;;;;4898823;29;20566;-84
2021/08/30 00:29:44;;;;;;;9.43;8.48;;;;;;;;;;4898186;29;20231;-85
2021/08/30 00:32:13;;;;;;;8.65;7.72;;;;;;;;;;4898280;29;20207;-84
2021/08/30 00:34:40;;;;;;;11.70;8.75;;;;;;;;;;4897726;29;20671;-85
2021/08/30 00:37:08;;;;;;;9.32;7.90;;;;;;;;;;4897553;29;20215;-85
2021/08/30 00:39:35;;;;;;;8.55;7.75;;;;;;;;;;4897739;29;20223;-85
2021/08/30 00:42:03;;;;;;;8.38;7.57;;;;;;;;;;4898407;29;20211;-85
2021/08/30 00:44:30;;;;;;;8.82;7.80;;;;;;;;;;4897987;29;20191;-85
2021/08/30 00:46:58;;;;;;;8.55;7.55;;;;;;;;;;4897956;29;20210;-85
2021/08/30 00:49:27;;;;;;;8.13;7.32;;;;;;;;;;4898049;29;20238;-84
2021/08/30 00:51:56;;;;;;;7.70;6.80;;;;;;;;;;4898519;29;20213;-84
2021/08/30 00:54:25;;;;;;;11.70;8.40;;;;;;;;;;4897971;29;20195;-85
2021/08/30 00:56:52;;;;;;;8.60;7.80;;;;;;;;;;4898200;29;20199;-84
2021/08/30 00:59:20;;;;;;;9.43;8.25;;;;;;;;;;4897661;29;20231;-84
2021/08/30 01:01:47;;;;;;;7.90;7.20;;;;;;;;;;4898277;29;20187;-85
2021/08/30 01:04:15;;;;;;;8.88;7.70;;;;;;;;;;4898131;29;20184;-84
2021/08/30 01:06:47;;;;;;;8.20;7.50;;;;;;;;;;4897948;29;20199;-84
2021/08/30 01:09:23;;;;;;;9.70;8.80;;;;;;;;;;4897768;29;20594;-85
2021/08/30 01:11:56;;;;;;;8.90;8.02;;;;;;;;;;4902100;29;20283;-84
2021/08/30 01:14:25;;;;;;;8.57;7.68;;;;;;;;;;4902497;29;20188;-85
2021/08/30 01:16:53;;;;;;;9.20;8.38;;;;;;;;;;4902346;29;20203;-85
2021/08/30 01:19:30;;;;;;;9.10;8.27;;;;;;;;;;4901547;29;20223;-84
2021/08/30 01:22:00;;;;;;;8.98;8.07;;;;;;;;;;4901913;29;20257;-84
2021/08/30 01:24:28;;;;;;;8.43;7.63;;;;;;;;;;4901091;29;20651;-84
2021/08/30 01:26:58;;;;;;;8.93;7.95;;;;;;;;;;4901562;29;20194;-84
2021/08/30 01:29:29;;;;;;;7.90;7.20;;;;;;;;;;4901646;29;20226;-84
2021/08/30 01:31:59;;;;;;;8.10;7.30;;;;;;;;;;4901649;29;20203;-85
2021/08/30 01:34:28;;;;;;;8.63;7.82;;;;;;;;;;4902118;29;20195;-84
2021/08/30 01:36:57;;;;;;;9.68;8.55;;;;;;;;;;4903612;29;20202;-83
2021/08/30 01:39:29;;;;;;;7.80;7.03;;;;;;;;;;4904058;29;20237;-84
2021/08/30 01:41:58;;;;;;;8.18;7.28;;;;;;;;;;4903460;29;20205;-84
2021/08/30 01:44:27;;;;;;;9.23;7.72;;;;;;;;;;4901588;29;20250;-85
2021/08/30 01:46:55;;;;;;;7.65;6.82;;;;;;;;;;4901779;29;20196;-85
2021/08/30 01:49:27;;;;;;;8.30;7.50;;;;;;;;;;4901163;29;20223;-84
2021/08/30 01:51:56;;;;;;;8.13;7.28;;;;;;;;;;4901306;29;20669;-84
2021/08/30 01:54:24;;;;;;;9.25;8.35;;;;;;;;;;4901578;29;20206;-84
2021/08/30 01:56:55;;;;;;;8.35;7.55;;;;;;;;;;4901701;29;20228;-84
2021/08/30 02:02:10;;;;;;;8.45;7.57;;;;;;;;;;4902704;29;20255;-83
2021/08/30 02:04:39;;;;;;;10.27;8.30;;;;;;;;;;4903172;29;20651;-84
2021/08/30 02:07:08;;;;;;;10.27;8.48;;;;;;;;;;4902220;29;20213;-84
2021/08/30 02:09:35;;;;;;;9.07;8.20;;;;;;;;;;4900565;29;20246;-84
2021/08/30 02:12:03;;;;;;;9.02;8.13;;;;;;;;;;4900037;29;20214;-84
2021/08/30 02:14:31;;;;;;;8.88;8.05;;;;;;;;;;4900420;29;20196;-84
2021/08/30 02:17:03;;;;;;;10.65;7.88;;;;;;;;;;4900316;29;20565;-83
2021/08/30 02:19:42;;;;;;;9.18;8.27;;;;;;;;;;4900070;29;20278;-83
2021/08/30 02:22:14;;;;;;;8.68;7.78;;;;;;;;;;4899495;29;20220;-84
2021/08/30 02:24:47;;;;;;;9.95;8.95;;;;;;;;;;4900270;29;20196;-85
2021/08/30 02:27:19;;;;;;;9.20;8.30;;;;;;;;;;4900226;29;20191;-83
2021/08/30 02:29:50;;;;;;;9.00;8.20;;;;;;;;;;4899911;29;20219;-84
2021/08/30 02:32:18;;;;;;;8.70;7.80;;;;;;;;;;4899594;29;20207;-84
2021/08/30 02:34:51;;;;;;;9.88;8.80;;;;;;;;;;4899916;29;20191;-83
2021/08/30 02:37:18;;;;;;;9.23;8.32;;;;;;;;;;4898734;29;20187;-84
2021/08/30 02:39:49;;;;;;;8.20;7.45;;;;;;;;;;4899135;29;20234;-85
2021/08/30 02:42:17;;;;;;;9.57;8.57;;;;;;;;;;4900001;29;20282;-84
2021/08/30 02:44:46;;;;;;;8.98;8.18;;;;;;;;;;4899714;29;20207;-84
2021/08/30 02:47:14;;;;;;;7.95;7.25;;;;;;;;;;4899662;29;20654;-85
2021/08/30 02:49:43;;;;;;;9.95;9.05;;;;;;;;;;4899597;29;20600;-84
2021/08/30 02:52:13;;;;;;;9.68;8.68;;;;;;;;;;4899377;29;20211;-85
2021/08/30 02:54:41;;;;;;;9.95;8.95;;;;;;;;;;4899520;29;20214;-84
2021/08/30 02:57:09;;;;;;;10.68;9.68;;;;;;;;;;4899822;29;20198;-84
2021/08/30 02:59:37;;;;;;;9.60;8.55;;;;;;;;;;4899574;29;20249;-84
2021/08/30 03:02:05;;;;;;;13.00;10.35;;;;;;;;;;4899705;29;20202;-84
2021/08/30 03:04:33;;;;;;;9.32;8.45;;;;;;;;;;4899865;29;20187;-83
2021/08/30 03:07:01;;;;;;;9.02;8.20;;;;;;;;;;4899359;29;20662;-85
2021/08/30 03:09:31;;;;;;;12.35;9.85;;;;;;;;;;4899278;29;20235;-84
2021/08/30 03:11:59;;;;;;;8.73;7.90;;;;;;;;;;4899433;29;20223;-85
2021/08/30 03:14:28;;;;;;;8.63;7.80;;;;;;;;;;4900086;29;20191;-84
2021/08/30 03:17:00;;;;;;;9.30;8.40;;;;;;;;;;4899145;29;20203;-84
2021/08/30 03:19:29;;;;;;;10.00;9.10;;;;;;;;;;4899439;29;20318;-85
2021/08/30 03:21:57;;;;;;;8.68;7.72;;;;;;;;;;4899460;29;20246;-84
2021/08/30 03:24:25;;;;;;;9.50;8.43;;;;;;;;;;4899338;29;20222;-84
2021/08/30 03:26:54;;;;;;;10.25;8.48;;;;;;;;;;4899495;29;20195;-84
2021/08/30 03:29:22;;;;;;;7.60;6.90;;;;;;;;;;4898825;29;20705;-83
2021/08/30 03:31:51;;;;;;;9.35;8.48;;;;;;;;;;4899395;29;20211;-83
2021/08/30 03:34:21;;;;;;;10.32;9.32;;;;;;;;;;4898844;29;20210;-84
2021/08/30 03:36:49;;;;;;;10.20;9.20;;;;;;;;;;4898944;29;20278;-84
2021/08/30 03:39:17;;;;;;;10.20;9.15;;;;;;;;;;4898944;29;20266;-85
2021/08/30 03:41:45;;;;;;;11.68;10.02;;;;;;;;;;4898897;29;20696;-84
2021/08/30 03:44:14;;;;;;;10.43;9.43;;;;;;;;;;4899090;29;20207;-84
2021/08/30 03:46:42;;;;;;;10.63;9.52;;;;;;;;;;4898828;29;20209;-84
2021/08/30 03:49:10;;;;;;;10.52;9.43;;;;;;;;;;4899118;29;20219;-84
2021/08/30 03:51:38;;;;;;;11.13;10.05;;;;;;;;;;4898561;29;20223;-84
2021/08/30 03:54:06;;;;;;;10.13;9.13;;;;;;;;;;4898667;29;20574;-84
2021/08/30 03:56:34;;;;;;;10.13;8.98;;;;;;;;;;4898602;29;20197;-84
2021/08/30 03:59:03;;;;;;;11.75;10.38;;;;;;;;;;4898903;29;20599;-84
2021/08/30 04:01:33;;;;;;;10.25;9.27;;;;;;;;;;4899001;29;20570;-84
2021/08/30 04:04:02;;;;;;;10.90;9.35;;;;;;;;;;4898740;29;20226;-85
2021/08/30 04:06:31;;;;;;;9.75;8.75;;;;;;;;;;4898527;29;20187;-84
2021/08/30 04:08:59;;;;;;;10.43;9.35;;;;;;;;;;4898090;29;20231;-84
2021/08/30 04:11:27;;;;;;;9.73;8.73;;;;;;;;;;4898168;29;20243;-84
2021/08/30 04:13:55;;;;;;;11.38;9.63;;;;;;;;;;4898331;29;20192;-84
2021/08/30 04:16:22;;;;;;;9.90;9.00;;;;;;;;;;4898324;29;20533;-84
2021/08/30 04:18:51;;;;;;;11.35;9.38;;;;;;;;;;4898089;29;20227;-84
2021/08/30 04:21:19;;;;;;;10.85;9.27;;;;;;;;;;4897942;29;20194;-84
2021/08/30 04:23:46;;;;;;;10.07;8.77;;;;;;;;;;4897995;29;20214;-84
2021/08/30 04:26:14;;;;;;;11.38;9.63;;;;;;;;;;4897834;29;20200;-85
2021/08/30 04:28:41;;;;;;;10.65;9.65;;;;;;;;;;4897704;29;20242;-85
2021/08/30 04:31:10;;;;;;;10.73;9.63;;;;;;;;;;4897595;29;20199;-84
2021/08/30 04:33:37;;;;;;;10.32;9.07;;;;;;;;;;4897256;29;20211;-84
2021/08/30 04:36:06;;;;;;;8.73;7.85;;;;;;;;;;4897382;29;20199;-84
2021/08/30 04:38:34;;;;;;;11.13;10.13;;;;;;;;;;4897590;29;20231;-84
2021/08/30 04:41:02;;;;;;;10.00;9.00;;;;;;;;;;4898066;29;20207;-83
2021/08/30 04:43:30;;;;;;;9.88;9.05;;;;;;;;;;4897803;29;20286;-84
2021/08/30 04:45:58;;;;;;;9.77;8.88;;;;;;;;;;4897427;29;20563;-84
2021/08/30 04:48:26;;;;;;;11.75;10.60;;;;;;;;;;4878721;29;20802;-84
2021/08/30 04:50:53;;;;;;;9.48;8.65;;;;;;;;;;4878913;29;20192;-84
2021/08/30 04:53:22;;;;;;;11.60;9.50;;;;;;;;;;4896244;29;20573;-84
2021/08/30 04:55:49;;;;;;;11.80;10.23;;;;;;;;;;4897779;29;20199;-84
2021/08/30 04:58:17;;;;;;;9.88;8.88;;;;;;;;;;4897402;29;20253;-84
2021/08/30 05:00:44;;;;;;;11.50;10.18;;;;;;;;;;4897524;29;20215;-84
2021/08/30 05:03:12;;;;;;;10.25;9.35;;;;;;;;;;4897554;29;20189;-84
2021/08/30 05:05:39;;;;;;;9.57;8.57;;;;;;;;;;4897679;29;20564;-84
2021/08/30 05:08:07;;;;;;;11.98;10.02;;;;;;;;;;4897262;29;20593;-84
2021/08/30 05:10:37;;;;;;;8.93;7.90;;;;;;;;;;4897161;29;20223;-84
2021/08/30 05:13:05;;;;;;;10.00;8.65;;;;;;;;;;4897167;29;20226;-84
2021/08/30 05:15:32;;;;;;;7.47;6.78;;;;;;;;;;4897761;29;20187;-84
2021/08/30 05:18:00;;;;;;;8.23;7.45;;;;;;;;;;4897288;29;20183;-85
2021/08/30 05:20:27;;;;;;;9.93;8.90;;;;;;;;;;4897570;29;20670;-84
2021/08/30 05:22:55;;;;;;;9.15;8.30;;;;;;;;;;4897223;29;20605;-84
2021/08/30 05:25:22;;;;;;;10.05;9.05;;;;;;;;;;4897424;29;20203;-84
2021/08/30 05:27:51;;;;;;;10.23;9.23;;;;;;;;;;4897496;29;20230;-84
2021/08/30 05:30:19;;;;;;;9.57;8.65;;;;;;;;;;4897326;29;20314;-84
2021/08/30 05:32:47;;;;;;;9.88;8.88;;;;;;;;;;4897037;29;20230;-84
2021/08/30 05:35:14;;;;;;;9.63;8.82;;;;;;;;;;4897914;29;20646;-84
2021/08/30 05:37:42;;;;;;;10.05;9.15;;;;;;;;;;4897272;29;20188;-84
2021/08/30 05:40:11;;;;;;;10.07;8.95;;;;;;;;;;4897211;29;20598;-84
2021/08/30 05:42:39;;;;;;;9.13;8.23;;;;;;;;;;4897232;29;20211;-84
2021/08/30 05:45:09;;;;;;;9.75;8.85;;;;;;;;;;4897501;29;20575;-84
2021/08/30 05:47:37;;;;;;;10.38;9.30;;;;;;;;;;4897555;29;20198;-83
2021/08/30 05:50:05;;;;;;;9.60;8.52;;;;;;;;;;4897493;29;20227;-84
2021/08/30 05:52:33;;;;;;;15.25;9.60;;;;;;;;;;4897093;29;20211;-83
2021/08/30 05:55:00;;;;;;;9.18;8.27;;;;;;;;;;4896735;29;20192;-83
2021/08/30 05:57:28;;;;;;;10.23;8.80;;;;;;;;;;4900602;29;20194;-83
2021/08/30 05:59:55;;;;;;;9.45;8.57;;;;;;;;;;4900818;29;20254;-84
2021/08/30 06:02:24;;;;;;;8.02;7.32;;;;;;;;;;4900800;29;20642;-84
2021/08/30 06:04:51;;;;;;;13.15;9.25;;;;;;;;;;4900680;29;20207;-83
2021/08/30 06:07:19;;;;;;;8.63;7.80;;;;;;;;;;4900408;29;20203;-83
2021/08/30 06:09:46;;;;;;;8.85;7.90;;;;;;;;;;4900388;29;20744;-83
2021/08/30 06:12:14;;;;;;;9.73;8.73;;;;;;;;;;4900567;29;20278;-84
2021/08/30 06:14:41;;;;;;;9.23;7.47;;;;;;;;;;4923794;23;20235;-86
2021/08/30 06:17:09;;;;;;;8.75;7.80;;;;;;;;;;4901452;29;20263;-87
2021/08/30 06:19:38;;;;;;;8.63;7.68;;;;;;;;;;4900846;29;20247;-83
2021/08/30 06:22:07;;;;;;;9.45;8.55;;;;;;;;;;4900741;29;20226;-86
2021/08/30 06:24:35;;;;;;;9.27;8.25;;;;;;;;;;4893678;29;20235;-85
2021/08/30 06:27:03;;;;;;;9.82;8.70;;;;;;;;;;4882085;29;20263;-85
2021/08/30 06:29:31;;;;;;;8.55;7.75;;;;;;;;;;4882022;29;20195;-86
2021/08/30 06:31:58;;;;;;;9.07;8.27;;;;;;;;;;4881940;29;20207;-87
2021/08/30 06:34:26;;;;;;;8.90;8.07;;;;;;;;;;4881424;29;20236;-85
2021/08/30 06:36:55;;;;;;;7.85;7.15;;;;;;;;;;4881986;29;20192;-85
2021/08/30 06:39:22;;;;;;;8.40;7.70;;;;;;;;;;4880347;29;20835;-86
2021/08/30 06:41:50;;;;;;;8.75;8.00;;;;;;;;;;4881701;29;20188;-85
2021/08/30 06:44:17;;;;;;;7.97;7.22;;;;;;;;;;4886136;29;20681;-85
2021/08/30 06:46:45;;;;;;;9.60;8.63;;;;;;;;;;4900284;29;20184;-85
2021/08/30 06:49:12;;;;;;;10.95;8.68;;;;;;;;;;4900431;29;20206;-86
2021/08/30 06:51:40;;;;;;;8.43;7.53;;;;;;;;;;4900397;29;20202;-84
2021/08/30 06:54:09;;;;;;;9.55;8.55;;;;;;;;;;4899854;29;20230;-86
2021/08/30 06:56:37;;;;;;;9.98;8.98;;;;;;;;;;4900312;29;20211;-85
2021/08/30 06:59:05;;;;;;;8.50;7.70;;;;;;;;;;4900674;29;20225;-83
2021/08/30 07:01:32;;;;;;;9.27;8.27;;;;;;;;;;4900717;29;20282;-87
2021/08/30 07:04:01;;;;;;;10.73;9.60;;;;;;;;;;4899998;29;20222;-84
2021/08/30 07:06:28;;;;;;;10.45;9.55;;;;;;;;;;4900774;29;20206;-86
2021/08/30 07:08:56;;;;;;;9.40;8.50;;;;;;;;;;4899301;29;20703;-86
2021/08/30 07:11:24;;;;;;;9.82;8.93;;;;;;;;;;4900117;29;20215;-86
2021/08/30 07:13:53;;;;;;;11.07;9.55;;;;;;;;;;4899425;29;20254;-87
2021/08/30 07:16:21;;;;;;;9.93;8.93;;;;;;;;;;4899726;29;20608;-85
2021/08/30 07:18:48;;;;;;;9.25;8.35;;;;;;;;;;4899847;29;20184;-84
2021/08/30 07:21:16;;;;;;;9.75;8.50;;;;;;;;;;4900007;29;20211;-86
2021/08/30 07:23:44;;;;;;;9.75;8.85;;;;;;;;;;4899674;29;20632;-85
2021/08/30 07:26:11;;;;;;;9.57;8.68;;;;;;;;;;4900187;29;20258;-85
2021/08/30 07:28:40;;;;;;;10.55;9.48;;;;;;;;;;4900260;29;20191;-85
2021/08/30 07:31:08;;;;;;;10.43;9.43;;;;;;;;;;4899890;29;20211;-85
2021/08/30 07:33:35;;;;;;;9.52;8.55;;;;;;;;;;4900767;29;20239;-86
2021/08/30 07:36:03;;;;;;;8.50;7.80;;;;;;;;;;4900492;29;20186;-86
2021/08/30 07:38:30;;;;;;;11.55;10.13;;;;;;;;;;4900076;29;20207;-84
2021/08/30 07:40:58;;;;;;;9.88;8.88;;;;;;;;;;4900784;29;20797;-84
2021/08/30 07:43:25;;;;;;;9.65;8.82;;;;;;;;;;4900209;29;20230;-85
2021/08/30 07:45:55;;;;;;;9.70;8.80;;;;;;;;;;4899696;29;20565;-83
2021/08/30 07:48:23;;;;;;;9.07;8.30;;;;;;;;;;4899128;29;20637;-82
2021/08/30 07:50:50;;;;;;;8.25;7.45;;;;;;;;;;4900173;29;20191;-82
2021/08/30 07:53:18;;;;;;;10.48;9.27;;;;;;;;;;4900648;29;20230;-84
2021/08/30 07:55:46;;;;;;;10.18;8.63;;;;;;;;;;4900109;29;20214;-86
2021/08/30 07:58:15;;;;;;;8.95;8.15;;;;;;;;;;4898901;29;20215;-85
2021/08/30 08:00:42;;;;;;;8.88;8.02;;;;;;;;;;4900007;29;20198;-86
2021/08/30 08:03:11;;;;;;;9.60;8.57;;;;;;;;;;4899338;29;20735;-85
2021/08/30 08:05:39;;;;;;;9.95;9.05;;;;;;;;;;4899413;29;20203;-84
2021/08/30 08:08:06;;;;;;;7.22;6.57;;;;;;;;;;4899555;29;20195;-86
2021/08/30 08:10:34;;;;;;;8.80;8.05;;;;;;;;;;4898683;29;20546;-84
2021/08/30 08:13:02;;;;;;;10.13;9.23;;;;;;;;;;4896209;29;20614;-86
2021/08/30 08:15:29;;;;;;;9.20;8.25;;;;;;;;;;4880815;29;20251;-86
2021/08/30 08:17:56;;;;;;;10.65;9.57;;;;;;;;;;4881380;29;20650;-87
2021/08/30 08:20:25;;;;;;;9.27;8.32;;;;;;;;;;4881086;29;20202;-86
2021/08/30 08:22:55;;;;;;;11.88;9.25;;;;;;;;;;4882070;29;20270;-85
2021/08/30 08:25:22;;;;;;;8.40;7.60;;;;;;;;;;4881394;29;20274;-86
2021/08/30 08:27:50;;;;;;;9.05;8.25;;;;;;;;;;4881997;29;20188;-85
2021/08/30 08:30:17;;;;;;;11.30;8.30;;;;;;;;;;4884249;29;20215;-85
2021/08/30 08:32:46;;;;;;;9.40;8.20;;;;;;;;;;4904225;29;20207;-86
2021/08/30 08:35:13;;;;;;;8.65;7.88;;;;;;;;;;4906213;29;20235;-86
2021/08/30 08:37:42;;;;;;;9.65;8.68;;;;;;;;;;4906457;29;20213;-86
2021/08/30 08:40:12;;;;;;;9.23;8.35;;;;;;;;;;4907163;29;20218;-86
2021/08/30 08:42:42;;;;;;;10.05;8.95;;;;;;;;;;4905817;29;20263;-85
2021/08/30 08:45:13;;;;;;;8.80;7.43;;;;;;;;;;4904050;29;20199;-85
2021/08/30 08:47:42;;;;;;;8.73;7.93;;;;;;;;;;4908722;29;20194;-84
2021/08/30 08:50:13;;;;;;;8.57;7.80;;;;;;;;;;4907503;29;20187;-85
2021/08/30 08:52:43;;;;;;;9.68;8.68;;;;;;;;;;4907092;29;20779;-86
2021/08/30 08:55:14;;;;;;;7.72;7.00;;;;;;;;;;4909383;29;20226;-85
2021/08/30 08:57:43;;;;;;;8.82;7.93;;;;;;;;;;4913468;29;20211;-85
2021/08/30 09:00:12;;;;;;;8.48;7.63;;;;;;;;;;4907635;29;20280;-84
2021/08/30 09:02:40;;;;;;;8.45;7.60;;;;;;;;;;4897078;29;20761;-85
2021/08/30 09:05:22;;;;;;;9.07;8.10;;;;;;;;;;4894159;29;20203;-86
2021/08/30 09:07:53;;;;;;;7.15;6.50;;;;;;;;;;4899879;29;20203;-86
2021/08/30 09:10:24;;;;;;;7.88;7.18;;;;;;;;;;4898299;29;20238;-86
2021/08/30 09:12:52;;;;;;;8.25;7.50;;;;;;;;;;4903972;29;20264;-85
2021/08/30 09:15:23;;;;;;;8.50;7.70;;;;;;;;;;4907276;29;20575;-85
2021/08/30 09:17:51;;;;;;;9.05;8.25;;;;;;;;;;4901665;29;20300;-84
2021/08/30 09:20:21;;;;;;;7.70;7.00;;;;;;;;;;4894141;29;20199;-85
2021/08/30 09:22:50;;;;;;;8.68;7.75;;;;;;;;;;4893267;29;20191;-85
2021/08/30 09:25:18;;;;;;;7.88;6.97;;;;;;;;;;4882113;29;20196;-86
2021/08/30 09:27:48;;;;;;;8.25;7.47;;;;;;;;;;4892203;29;20254;-84
2021/08/30 09:30:17;;;;;;;7.85;7.05;;;;;;;;;;4897943;29;20555;-85
2021/08/30 09:32:49;;;;;;;7.57;6.88;;;;;;;;;;4901329;29;20193;-86
2021/08/30 09:35:17;;;;;;;7.22;6.63;;;;;;;;;;4900983;29;20218;-84
2021/08/30 09:37:46;;;;;;;8.77;7.15;;;;;;;;;;4901267;29;20556;-85
2021/08/30 09:40:17;;;;;;;7.63;7.03;;;;;;;;;;4901582;29;20199;-85
2021/08/30 09:42:49;;;;;;;9.20;7.72;;;;;;;;;;4895288;29;20203;-85
2021/08/30 09:45:20;;;;;;;8.40;7.65;;;;;;;;;;4900072;29;20211;-85
2021/08/30 09:47:55;;;;;;;7.60;6.90;;;;;;;;;;4900782;29;20252;-85
2021/08/30 09:50:36;;;;;;;8.45;7.57;;;;;;;;;;4901516;29;20658;-85
2021/08/30 09:53:07;;;;;;;8.13;7.03;;;;;;;;;;4901269;29;20222;-85
2021/08/30 09:55:37;;;;;;;7.05;6.35;;;;;;;;;;4901096;29;20213;-85
2021/08/30 09:58:06;;;;;;;7.22;6.63;;;;;;;;;;4902436;29;20210;-86
2021/08/30 10:00:36;;;;;;;6.60;6.00;;;;;;;;;;4901015;29;20199;-85
2021/08/30 10:03:04;;;;;;;6.60;6.00;;;;;;;;;;4901277;29;20238;-85
2021/08/30 10:05:32;;;;;;;7.47;6.80;;;;;;;;;;4901261;29;20195;-85
2021/08/30 10:08:01;;;;;;;7.43;6.75;;;;;;;;;;4901372;29;20572;-85
2021/08/30 10:10:31;;;;;;;6.55;6.00;;;;;;;;;;4895849;29;20202;-85
2021/08/30 10:13:01;;;;;;;7.55;6.35;;;;;;;;;;4896077;29;20605;-85
2021/08/30 10:15:30;;;;;;;7.07;6.47;;;;;;;;;;4901676;29;20215;-85
2021/08/30 10:18:01;;;;;;;7.03;6.32;;;;;;;;;;4901772;29;20270;-85
2021/08/30 10:20:34;;;;;;;7.20;6.60;;;;;;;;;;4901369;29;20202;-85
2021/08/30 10:23:04;;;;;;;6.72;6.13;;;;;;;;;;4901161;29;20223;-85
2021/08/30 10:25:33;;;;;;;6.70;6.10;;;;;;;;;;4893298;29;20203;-86
2021/08/30 10:28:06;;;;;;;7.07;6.38;;;;;;;;;;4900509;29;20195;-86
2021/08/30 10:30:35;;;;;;;5.85;5.38;;;;;;;;;;4898974;29;20207;-86
2021/08/30 10:33:05;;;;;;;6.05;5.50;;;;;;;;;;4883014;29;20224;-85
2021/08/30 10:35:36;;;;;;;6.28;5.78;;;;;;;;;;4887993;29;20221;-86
2021/08/30 10:38:06;;;;;;;5.43;4.93;;;;;;;;;;4900569;29;20215;-85
2021/08/30 10:40:37;;;;;;;5.70;5.20;;;;;;;;;;4885636;29;20213;-86
2021/08/30 10:43:10;;;;;;;5.90;5.40;;;;;;;;;;4881062;29;20228;-83
2021/08/30 10:45:41;;;;;;;5.32;4.82;;;;;;;;;;4887364;29;20195;-84
2021/08/30 10:48:12;;;;;;;5.18;4.78;;;;;;;;;;4895470;29;20242;-86
2021/08/30 10:50:43;;;;;;;4.75;4.35;;;;;;;;;;4893511;29;20234;-85
2021/08/30 10:53:17;;;;;;;5.47;5.03;;;;;;;;;;4899391;29;20246;-87
2021/08/30 10:55:48;;;;;;;5.15;4.65;;;;;;;;;;4900006;29;20230;-85
2021/08/30 10:58:20;;;;;;;6.75;6.15;;;;;;;;;;4900315;29;20639;-85
2021/08/30 11:00:50;;;;;;;5.30;4.88;;;;;;;;;;4900934;29;20294;-86
2021/08/30 11:03:30;;;;;;;5.10;4.63;;;;;;;;;;4900470;29;20800;-85
2021/08/30 11:06:06;;;;;;;4.65;4.25;;;;;;;;;;4900784;29;20191;-85
2021/08/30 11:08:35;;;;;;;4.60;4.20;;;;;;;;;;4900393;29;20605;-86
2021/08/30 11:11:16;;;;;;;5.55;5.07;;;;;;;;;;4900362;29;20206;-85
2021/08/30 11:13:56;;;;;;;5.35;4.95;;;;;;;;;;4880964;29;20239;-85
2021/08/30 11:16:25;;;;;;;6.25;5.75;;;;;;;;;;4882214;29;20602;-85
2021/08/30 11:18:55;;;;;;;6.43;5.80;;;;;;;;;;4881752;29;20192;-86
2021/08/30 11:21:44;;;;;;;5.43;4.97;;;;;;;;;;4882489;29;20666;-86
2021/08/30 11:24:27;;;;;;;5.68;5.18;;;;;;;;;;4881485;29;20323;-86
2021/08/30 11:26:56;;;;;;;6.47;5.38;;;;;;;;;;4881560;29;20204;-86
2021/08/30 11:29:25;;;;;;;5.38;4.88;;;;;;;;;;4881710;29;20200;-85
2021/08/30 11:31:54;;;;;;;5.07;4.68;;;;;;;;;;4881637;29;20180;-85
2021/08/30 11:34:32;;;;;;;7.45;6.25;;;;;;;;;;4886598;29;20618;-85
2021/08/30 11:37:01;;;;;;;5.70;5.20;;;;;;;;;;4899672;29;20223;-85
2021/08/30 11:39:33;;;;;;;6.13;5.60;;;;;;;;;;4899560;29;20672;-85
2021/08/30 11:42:03;;;;;;;5.15;4.75;;;;;;;;;;4899927;29;20214;-85
2021/08/30 11:44:34;;;;;;;5.80;5.30;;;;;;;;;;4884549;29;20285;-85
2021/08/30 11:47:04;;;;;;;6.47;5.88;;;;;;;;;;4886710;29;20188;-85
2021/08/30 11:49:37;;;;;;;7.60;6.88;;;;;;;;;;4900101;29;20207;-84
2021/08/30 11:52:06;;;;;;;7.47;6.78;;;;;;;;;;4900347;29;20297;-87
2021/08/30 11:54:35;;;;;;;7.32;6.32;;;;;;;;;;4899987;29;20237;-85
2021/08/30 11:57:07;;;;;;;6.93;6.32;;;;;;;;;;4899756;29;20222;-85
2021/08/30 11:59:38;;;;;;;7.00;6.30;;;;;;;;;;4900166;29;20206;-86
2021/08/30 12:02:08;;;;;;;6.15;5.65;;;;;;;;;;4899472;29;20570;-87
2021/08/30 12:04:39;;;;;;;14.77;13.38;;;;;;;;;;4899438;29;20225;-85
2021/08/30 12:07:15;;;;;;;7.88;7.07;;;;;;;;;;4899931;29;20191;-91
2021/08/30 12:09:47;;;;;;;7.13;6.43;;;;;;;;;;4899892;29;20627;-90
2021/08/30 12:12:20;;;;;;;5.93;5.43;;;;;;;;;;4898783;29;20694;-84
2021/08/30 12:15:07;;;;;;;6.30;5.75;;;;;;;;;;4899088;29;20243;-85
2021/08/30 12:17:50;;;;;;;5.65;5.05;;;;;;;;;;4915121;23;20241;-90
2021/08/30 12:20:21;;;;;;;5.70;5.20;;;;;;;;;;4899013;29;20211;-84
2021/08/30 12:22:57;;;;;;;6.93;5.25;;;;;;;;;;4906074;29;20831;-84
2021/08/30 12:25:33;;;;;;;5.38;4.97;;;;;;;;;;4883784;29;20208;-84
2021/08/30 12:28:02;;;;;;;5.20;4.80;;;;;;;;;;4896056;29;20840;-84
2021/08/30 12:30:34;;;;;;;4.40;3.70;;;;;;;;;;4915580;29;20185;-84
2021/08/30 12:33:08;;;;;;;5.22;4.82;;;;;;;;;;4916103;29;20243;-85
2021/08/30 12:35:38;;;;;;;4.68;4.28;;;;;;;;;;4915695;29;20213;-84
2021/08/30 12:38:13;;;;;;;6.03;5.53;;;;;;;;;;4915463;29;20234;-83
2021/08/30 12:40:42;;;;;;;5.28;4.78;;;;;;;;;;4915602;29;20193;-84
2021/08/30 12:43:11;;;;;;;6.20;4.93;;;;;;;;;;4915360;29;20217;-84
2021/08/30 12:45:40;;;;;;;5.75;5.25;;;;;;;;;;4917173;29;20203;-86
2021/08/30 12:48:08;;;;;;;5.53;5.03;;;;;;;;;;4915342;29;20222;-88
2021/08/30 12:50:36;;;;;;;5.95;5.45;;;;;;;;;;4916514;29;20199;-86
2021/08/30 12:53:05;;;;;;;5.53;5.03;;;;;;;;;;4896089;29;20264;-86
2021/08/30 12:55:32;;;;;;;5.15;4.75;;;;;;;;;;4896028;29;20195;-86
2021/08/30 12:58:01;;;;;;;5.65;5.10;;;;;;;;;;4895609;29;20760;-87
2021/08/30 13:00:30;;;;;;;4.85;4.50;;;;;;;;;;4896003;29;20211;-86
2021/08/30 13:03:00;;;;;;;4.90;4.50;;;;;;;;;;4911396;29;20293;-85
2021/08/30 13:05:32;;;;;;;5.45;4.20;;;;;;;;;;4925634;29;20213;-85
2021/08/30 13:08:01;;;;;;;5.25;4.63;;;;;;;;;;4921731;29;20244;-84
2021/08/30 13:10:35;;;;;;;4.75;4.35;;;;;;;;;;4915589;29;20680;-85
2021/08/30 13:13:03;;;;;;;4.63;4.32;;;;;;;;;;4914693;29;20190;-85
2021/08/30 13:15:31;;;;;;;4.68;4.28;;;;;;;;;;4914480;29;20186;-85
2021/08/30 13:18:06;;;;;;;4.82;4.43;;;;;;;;;;4901708;29;20234;-86
2021/08/30 13:20:38;;;;;;;11.82;4.88;;;;;;;;;;4896065;29;20218;-84
2021/08/30 13:23:12;;;;;;;4.30;3.90;;;;;;;;;;4895903;29;20199;-84
2021/08/30 13:25:41;;;;;;;5.22;4.82;;;;;;;;;;4887799;29;20204;-85
2021/08/30 13:28:10;;;;;;;5.03;3.65;;;;;;;;;;4877187;29;20230;-84
2021/08/30 13:30:38;;;;;;;4.03;3.72;;;;;;;;;;4877281;29;20231;-88
2021/08/30 13:33:07;;;;;;;4.68;4.28;;;;;;;;;;4877446;29;20210;-84
2021/08/30 13:35:35;;;;;;;4.22;3.92;;;;;;;;;;4888615;29;20470;-85
2021/08/30 13:38:03;;;;;;;5.15;4.10;;;;;;;;;;4897104;29;20219;-85
2021/08/30 13:40:31;;;;;;;4.72;4.32;;;;;;;;;;4897465;29;20638;-85
2021/08/30 13:42:59;;;;;;;4.63;4.22;;;;;;;;;;4897449;29;20196;-85
2021/08/30 13:45:27;;;;;;;5.05;4.65;;;;;;;;;;4895704;29;20684;-85
2021/08/30 13:47:56;;;;;;;5.00;4.55;;;;;;;;;;4896132;29;20227;-86
2021/08/30 13:50:26;;;;;;;4.50;4.10;;;;;;;;;;4896638;29;20199;-84
2021/08/30 13:52:54;;;;;;;6.65;4.47;;;;;;;;;;4896334;29;20259;-87
2021/08/30 13:55:22;;;;;;;4.38;3.97;;;;;;;;;;4895753;29;20211;-86
2021/08/30 13:57:50;;;;;;;4.35;4.05;;;;;;;;;;4895322;29;20235;-86
2021/08/30 14:00:19;;;;;;;4.78;4.38;;;;;;;;;;4895974;29;20576;-85
2021/08/30 14:02:46;;;;;;;5.55;5.05;;;;;;;;;;4896084;29;20279;-86
2021/08/30 14:05:14;;;;;;;4.95;4.55;;;;;;;;;;4895674;29;20219;-87
2021/08/30 14:07:43;;;;;;;5.43;4.82;;;;;;;;;;4895883;29;20231;-85
2021/08/30 14:10:13;;;;;;;5.20;4.80;;;;;;;;;;4895913;29;20237;-85
2021/08/30 14:12:42;;;;;;;6.45;5.20;;;;;;;;;;4896426;29;20215;-87
2021/08/30 14:15:12;;;;;;;7.60;5.55;;;;;;;;;;4896301;29;20305;-86
2021/08/30 14:17:40;;;;;;;4.97;4.57;;;;;;;;;;4907733;29;20270;-85
2021/08/30 14:20:10;;;;;;;4.72;4.32;;;;;;;;;;4918018;29;20206;-87
2021/08/30 14:22:38;;;;;;;5.15;4.70;;;;;;;;;;4918280;29;20209;-86
2021/08/30 14:25:08;;;;;;;5.43;5.03;;;;;;;;;;4918118;29;20297;-86
2021/08/30 14:27:36;;;;;;;4.20;3.90;;;;;;;;;;4918737;29;20226;-85
2021/08/30 14:30:06;;;;;;;5.53;5.13;;;;;;;;;;4919266;29;20191;-86
2021/08/30 14:32:34;;;;;;;5.10;4.70;;;;;;;;;;4918742;29;20201;-85
2021/08/30 14:35:23;;;;;;;5.57;5.13;;;;;;;;;;4918859;29;20209;-85
2021/08/30 14:37:51;;;;;;;5.20;4.70;;;;;;;;;;4918523;29;20230;-85
2021/08/30 14:40:21;;;;;;;4.35;3.85;;;;;;;;;;4919037;29;20197;-85
2021/08/30 14:42:54;;;;;;;5.72;4.30;;;;;;;;;;4918454;29;20187;-85
2021/08/30 14:45:28;;;;;;;5.25;4.40;;;;;;;;;;4918146;29;20190;-85
2021/08/30 14:48:05;;;;;;;5.18;4.75;;;;;;;;;;4918700;29;20229;-85
2021/08/30 14:50:32;;;;;;;4.40;4.00;;;;;;;;;;4919151;29;20198;-86
2021/08/30 14:53:00;;;;;;;4.90;4.50;;;;;;;;;;4918296;29;20228;-86
2021/08/30 14:55:30;;;;;;;4.88;4.47;;;;;;;;;;4910826;29;20254;-85